KYNG/YNG METAR and TAF weather

Enter ICAO airport designator
Station Type Date Time Source
KYNG METAR 2019/04/18 21:51 UTC NOAA

KYNG 182151Z 20014G19KT 10SM FEW050 SCT100 BKN140 BKN250 25/12 A2966 RMK AO2 SLP035 T02500117


Station Type Date Time Source
KYNG Decoded METAR 2019/04/18 21:51 UTC NOAA

YOUNGSTOWN-WARREN REG AIRPRT, OH, United States (KYNG) 41-15N 080-40W 360M
Apr 18, 2019 - 05:51 PM EDT / 2019.04.18 2151 UTC
Wind: from the SSW (200 degrees) at 16 MPH (14 KT) gusting to 22 MPH (19 KT):0
Visibility: 10 mile(s):0
Sky conditions: mostly cloudy
Temperature: 77.0 F (25.0 C)
Dew Point: 53.1 F (11.7 C)
Relative Humidity: 43%
Pressure (altimeter): 29.66 in. Hg (1004 hPa)
ob: KYNG 182151Z 20014G19KT 10SM FEW050 SCT100 BKN140 BKN250 25/12 A2966 RMK AO2 SLP035 T02500117
cycle: 22

Station Type Date Time Source
KYNG TAF 2019/04/18 18:42 UTC NOAA

TAF KYNG 181739Z 1818/1918 20015G25KT P6SM SCT060 BKN100
FM190200 19009KT P6SM OVC100 WS020/22040KT
FM191100 16008KT P6SM -SHRA SCT025 OVC040

Example: see airport list